Time;durP1;ratioP1;P1;durP2;ratioP2;P2;SDS_P1;SDS_P2;PMS_P1;PMS_P2;Temp;Humidity;BMP_temperature;BMP_pressure;BME280_temperature;BME280_humidity;BME280_pressure;Samples;Min_cycle;Max_cycle;Signal;HPM_P1;HPM_P2
2023/07/22 00:00:14;;;;;;;12.97;11.83;;;;;;;13.93;100.00;100967.81;5072419;28;20546;-40
2023/07/22 00:02:43;;;;;;;13.40;12.13;;;;;;;13.86;100.00;100965.16;5072741;28;20489;-43
2023/07/22 00:05:12;;;;;;;13.50;12.60;;;;;;;13.83;100.00;100960.22;5069484;28;20458;-41
2023/07/22 00:07:40;;;;;;;13.10;12.10;;;;;;;13.78;100.00;100960.03;5072526;28;20422;-41
2023/07/22 00:10:08;;;;;;;13.20;12.20;;;;;;;13.71;100.00;100956.53;5071846;28;20454;-41
2023/07/22 00:12:36;;;;;;;13.40;12.50;;;;;;;13.68;100.00;100961.50;5072131;28;20537;-40
2023/07/22 00:15:06;;;;;;;14.50;13.40;;;;;;;13.62;100.00;100963.19;5072292;28;20924;-40
2023/07/22 00:17:33;;;;;;;13.27;12.33;;;;;;;13.59;100.00;100954.75;5072216;28;20496;-41
2023/07/22 00:20:01;;;;;;;14.43;13.20;;;;;;;13.55;100.00;100956.19;5071663;28;20485;-45
2023/07/22 00:22:30;;;;;;;14.37;12.87;;;;;;;13.52;100.00;100957.44;5072111;28;20511;-41
2023/07/22 00:24:59;;;;;;;14.07;12.60;;;;;;;13.48;100.00;100961.56;5072604;28;20434;-41
2023/07/22 00:27:27;;;;;;;14.07;12.93;;;;;;;13.44;100.00;100960.34;5072173;28;20462;-42
2023/07/22 00:29:55;;;;;;;12.13;11.43;;;;;;;13.39;100.00;100954.78;5071717;28;20840;-42
2023/07/22 00:32:22;;;;;;;15.00;13.77;;;;;;;13.38;100.00;100957.69;5071958;28;20458;-41
2023/07/22 00:34:50;;;;;;;15.37;14.17;;;;;;;13.38;100.00;100957.69;5072241;28;20439;-44
2023/07/22 00:37:18;;;;;;;15.13;13.97;;;;;;;13.37;100.00;100959.53;5071989;28;20975;-40
2023/07/22 00:39:47;;;;;;;14.03;13.03;;;;;;;13.39;100.00;100960.16;5071546;28;20466;-39
2023/07/22 00:42:15;;;;;;;14.90;13.70;;;;;;;13.39;100.00;100956.66;5071910;28;20488;-40
2023/07/22 00:44:42;;;;;;;15.63;14.30;;;;;;;13.40;100.00;100967.16;5071951;28;20430;-40
2023/07/22 00:47:10;;;;;;;15.10;13.80;;;;;;;13.43;100.00;100961.38;5071954;28;20859;-39
2023/07/22 00:49:38;;;;;;;13.80;12.60;;;;;;;13.46;100.00;100960.97;5071316;28;20546;-41
2023/07/22 00:52:06;;;;;;;14.57;13.57;;;;;;;13.50;100.00;100967.53;5071401;28;20480;-40
2023/07/22 00:54:34;;;;;;;13.87;12.97;;;;;;;13.53;100.00;100953.72;5072100;28;20466;-41
2023/07/22 00:57:04;;;;;;;14.70;13.50;;;;;;;13.58;100.00;100956.59;5071506;28;20430;-40
2023/07/22 00:59:32;;;;;;;14.80;13.80;;;;;;;13.62;100.00;100957.81;5071071;28;20537;-40
2023/07/22 01:02:00;;;;;;;14.90;14.00;;;;;;;13.67;100.00;100960.72;5071608;28;20521;-41
2023/07/22 01:04:27;;;;;;;16.20;15.00;;;;;;;13.72;100.00;100952.00;5071508;28;20430;-42
2023/07/22 01:06:56;;;;;;;14.97;13.77;;;;;;;13.72;100.00;100955.53;5071481;28;20469;-42
2023/07/22 01:09:24;;;;;;;13.30;12.37;;;;;;;13.76;100.00;100956.75;5070856;28;20454;-39
2023/07/22 01:11:52;;;;;;;14.90;13.57;;;;;;;13.77;100.00;100955.69;5071041;28;20850;-40
2023/07/22 01:14:21;;;;;;;15.07;13.87;;;;;;;13.78;100.00;100945.81;5071285;28;21035;-41
2023/07/22 01:16:49;;;;;;;13.90;13.00;;;;;;;13.81;100.00;100940.84;5071355;28;20462;-40
2023/07/22 01:19:19;;;;;;;15.73;14.50;;;;;;;13.88;100.00;100950.72;5070811;28;20474;-40
2023/07/22 01:21:49;;;;;;;15.67;14.47;;;;;;;13.88;100.00;100942.69;5071092;28;20430;-45
2023/07/22 01:24:18;;;;;;;16.60;15.33;;;;;;;13.89;100.00;100944.34;5071353;28;20504;-40
2023/07/22 01:26:47;;;;;;;17.50;15.50;;;;;;;13.89;100.00;100952.38;5071360;28;20928;-40
2023/07/22 01:29:15;;;;;;;14.40;13.50;;;;;;;13.91;100.00;100956.50;5070672;28;20549;-41
2023/07/22 01:31:43;;;;;;;15.33;14.23;;;;;;;13.92;100.00;100957.31;5071045;28;20430;-39
2023/07/22 01:34:12;;;;;;;16.33;14.93;;;;;;;13.93;100.00;100951.72;5071590;28;20446;-40
2023/07/22 01:36:40;;;;;;;14.60;13.57;;;;;;;13.94;100.00;100955.22;5071270;28;20431;-41
2023/07/22 01:39:07;;;;;;;15.83;14.63;;;;;;;13.96;100.00;100958.50;5070740;28;20465;-40
2023/07/22 01:41:36;;;;;;;14.80;13.80;;;;;;;13.97;100.00;100955.63;5070516;28;20975;-42
2023/07/22 01:44:04;;;;;;;16.43;15.20;;;;;;;13.97;100.00;100960.16;5071157;28;20840;-41
2023/07/22 01:46:32;;;;;;;15.97;14.97;;;;;;;13.99;100.00;100958.09;5070892;28;20430;-42
2023/07/22 01:49:00;;;;;;;15.87;14.80;;;;;;;13.98;100.00;100951.09;5070436;28;20458;-42
2023/07/22 01:51:29;;;;;;;16.17;15.07;;;;;;;13.98;100.00;100949.22;5070785;28;20434;-44
2023/07/22 01:53:57;;;;;;;16.60;15.30;;;;;;;13.95;100.00;100957.69;5071075;28;20899;-41
2023/07/22 01:56:25;;;;;;;16.07;14.90;;;;;;;13.96;100.00;100947.78;5071255;28;20436;-41
2023/07/22 01:58:55;;;;;;;15.47;14.17;;;;;;;13.94;100.00;100953.38;5070656;28;20470;-44
2023/07/22 02:01:22;;;;;;;14.77;13.63;;;;;;;13.86;100.00;100950.91;5070727;28;20423;-45
2023/07/22 02:03:50;;;;;;;15.37;14.27;;;;;;;13.83;100.00;100954.03;5067665;28;20451;-42
2023/07/22 02:06:18;;;;;;;16.30;15.10;;;;;;;13.82;100.00;100958.59;5070855;28;20437;-42
2023/07/22 02:08:46;;;;;;;16.30;15.20;;;;;;;13.80;100.00;100959.81;5070058;28;20422;-42
2023/07/22 02:11:14;;;;;;;17.20;15.90;;;;;;;13.81;100.00;100973.00;5070447;28;20481;-39
2023/07/22 02:13:42;;;;;;;17.63;16.20;;;;;;;13.84;100.00;100966.41;5070932;28;20457;-42
2023/07/22 02:16:12;;;;;;;14.87;13.87;;;;;;;13.86;100.00;100969.69;5070765;28;20971;-40
2023/07/22 02:18:40;;;;;;;15.80;14.50;;;;;;;13.85;100.00;100974.25;5070172;28;21074;-42
2023/07/22 02:21:08;;;;;;;15.13;14.10;;;;;;;13.84;100.00;100966.41;5070114;28;20450;-39
2023/07/22 02:23:35;;;;;;;15.23;14.13;;;;;;;13.82;100.00;100958.59;5070834;28;20523;-42
2023/07/22 02:26:03;;;;;;;14.77;13.77;;;;;;;13.77;100.00;100974.47;5070797;28;20438;-44
2023/07/22 02:28:31;;;;;;;14.77;13.50;;;;;;;13.72;100.00;100968.91;5070865;28;20981;-45
2023/07/22 02:31:04;;;;;;;16.67;15.30;;;;;;;13.70;100.00;100965.66;5070555;28;21185;-45
2023/07/22 02:33:34;;;;;;;15.27;14.27;;;;;;;13.66;100.00;100971.63;5070579;28;20482;-41
2023/07/22 02:36:01;;;;;;;14.03;13.23;;;;;;;13.62;100.00;100968.53;5070741;28;20460;-40
2023/07/22 02:38:29;;;;;;;14.77;13.87;;;;;;;13.61;100.00;100976.78;5070738;28;20474;-45
2023/07/22 02:41:03;;;;;;;15.83;14.83;;;;;;;13.58;100.00;100972.69;5070303;28;20458;-42
2023/07/22 02:43:30;;;;;;;17.20;15.67;;;;;;;13.53;100.00;100969.78;5070114;28;20537;-40
2023/07/22 02:45:58;;;;;;;16.10;14.83;;;;;;;13.50;100.00;100983.59;5070621;28;20806;-42
2023/07/22 02:48:26;;;;;;;13.93;13.13;;;;;;;13.47;100.00;100977.88;5070851;28;20430;-40
2023/07/22 02:50:55;;;;;;;14.40;13.50;;;;;;;13.42;100.00;100988.38;5070126;28;21056;-40
2023/07/22 02:53:22;;;;;;;14.70;13.70;;;;;;;13.36;100.00;100982.00;5072919;28;20450;-41
2023/07/22 02:55:50;;;;;;;12.87;12.17;;;;;;;13.27;100.00;100983.25;5074188;28;20480;-40
2023/07/22 02:58:18;;;;;;;13.50;12.70;;;;;;;13.26;100.00;100973.59;5073843;28;20549;-40
2023/07/22 03:00:46;;;;;;;14.53;13.40;;;;;;;13.20;100.00;100983.25;5073599;28;20834;-40
2023/07/22 03:03:13;;;;;;;13.87;12.80;;;;;;;13.15;100.00;100988.41;5073852;28;20512;-41
2023/07/22 03:05:41;;;;;;;14.03;13.23;;;;;;;13.14;100.00;100989.44;5073863;28;20928;-42
2023/07/22 03:08:10;;;;;;;14.40;13.50;;;;;;;13.13;100.00;100995.00;5073830;28;20891;-40
2023/07/22 03:10:38;;;;;;;13.20;12.43;;;;;;;13.13;100.00;100990.47;5073318;28;20458;-40
2023/07/22 03:13:05;;;;;;;12.67;11.97;;;;;;;13.15;100.00;100998.28;5073212;28;20504;-39
2023/07/22 03:15:33;;;;;;;11.87;11.37;;;;;;;13.15;100.00;100995.63;5073724;28;20488;-40
2023/07/22 03:18:01;;;;;;;11.53;10.87;;;;;;;13.17;100.00;100993.56;5073592;28;20508;-39
2023/07/22 03:20:29;;;;;;;12.40;11.70;;;;;;;13.17;100.00;101002.41;5072913;28;20888;-40
2023/07/22 03:22:56;;;;;;;13.00;12.07;;;;;;;13.19;100.00;100996.88;5073090;28;20454;-39
2023/07/22 03:25:25;;;;;;;12.13;11.63;;;;;;;13.19;100.00;100996.88;5073110;28;20548;-39
2023/07/22 03:27:54;;;;;;;13.10;12.50;;;;;;;13.19;100.00;100999.53;5073467;28;20470;-39
2023/07/22 03:30:23;;;;;;;13.87;12.97;;;;;;;13.14;100.00;101007.38;5072579;28;20494;-41
2023/07/22 03:32:51;;;;;;;14.00;13.10;;;;;;;13.13;100.00;101003.03;5073044;28;20508;-41
2023/07/22 03:35:19;;;;;;;12.80;12.17;;;;;;;13.14;100.00;101008.19;5073684;28;20851;-40
2023/07/22 03:37:46;;;;;;;12.87;12.27;;;;;;;13.11;100.00;101000.56;5073354;28;20430;-39
2023/07/22 03:40:17;;;;;;;13.70;12.80;;;;;;;13.10;100.00;101001.59;5072452;28;21060;-43
2023/07/22 03:42:46;;;;;;;12.73;12.03;;;;;;;13.09;100.00;100999.94;5072809;28;20451;-47
2023/07/22 03:45:14;;;;;;;12.90;12.20;;;;;;;13.09;100.00;101007.97;5072683;28;20827;-44
2023/07/22 03:47:41;;;;;;;12.20;11.50;;;;;;;13.13;100.00;101000.38;5073141;28;20430;-41
2023/07/22 03:50:10;;;;;;;12.57;11.97;;;;;;;13.13;100.00;101001.19;5072015;28;20519;-43
2023/07/22 03:52:38;;;;;;;11.97;11.37;;;;;;;13.10;100.00;101003.47;5072455;28;20450;-41
2023/07/22 03:55:06;;;;;;;12.37;11.77;;;;;;;13.15;100.00;101003.66;5072918;28;20435;-39
2023/07/22 03:57:34;;;;;;;13.13;12.13;;;;;;;13.16;100.00;101002.63;5073103;28;20504;-42
2023/07/22 04:00:09;;;;;;;11.70;11.20;;;;;;;13.19;100.00;101007.56;5071937;28;20466;-40
2023/07/22 04:02:36;;;;;;;13.20;12.33;;;;;;;13.21;100.00;101008.19;5072506;28;20446;-41
2023/07/22 04:05:05;;;;;;;14.10;13.00;;;;;;;13.26;100.00;101013.75;5072191;28;20438;-39
2023/07/22 04:07:33;;;;;;;12.53;11.83;;;;;;;13.30;100.00;101014.97;5071704;28;20480;-39
2023/07/22 04:10:01;;;;;;;12.90;12.30;;;;;;;13.36;100.00;101016.81;5071412;28;20462;-45
2023/07/22 04:12:29;;;;;;;14.40;13.60;;;;;;;13.42;100.00;101021.34;5072203;28;20455;-41
2023/07/22 04:14:57;;;;;;;13.37;12.67;;;;;;;13.47;100.00;101016.19;5072401;28;20426;-39
2023/07/22 04:17:26;;;;;;;12.07;11.37;;;;;;;13.52;100.00;101016.41;5072161;28;20477;-42
2023/07/22 04:19:54;;;;;;;13.83;13.00;;;;;;;13.61;100.00;101014.31;5071353;28;20573;-39
2023/07/22 04:22:22;;;;;;;13.20;12.50;;;;;;;13.64;100.00;101016.56;5070919;28;20470;-42
2023/07/22 04:24:49;;;;;;;13.07;12.27;;;;;;;13.67;100.00;101011.63;5071857;28;20837;-39
2023/07/22 04:27:18;;;;;;;12.23;11.63;;;;;;;13.81;100.00;101017.75;5072065;28;20430;-40
2023/07/22 04:29:45;;;;;;;12.37;11.67;;;;;;;14.30;100.00;101022.53;5071329;28;20503;-40
2023/07/22 04:32:13;;;;;;;12.47;11.63;;;;;;;15.31;100.00;101017.91;5071778;28;20966;-40
2023/07/22 04:34:42;;;;;;;13.03;12.40;;;;;;;16.72;100.00;101032.03;5072542;28;20488;-40
2023/07/22 04:37:09;;;;;;;12.57;11.97;;;;;;;18.04;100.00;101020.59;5071614;28;20440;-44
2023/07/22 04:39:37;;;;;;;12.80;12.30;;;;;;;19.29;100.00;101013.16;5071307;28;20919;-40
2023/07/22 04:42:05;;;;;;;12.20;11.70;;;;;;;20.31;100.00;101005.34;5071578;28;20959;-42
2023/07/22 04:44:33;;;;;;;12.10;11.60;;;;;;;21.09;100.00;100974.94;5071389;28;20442;-44
2023/07/22 04:47:01;;;;;;;11.80;11.30;;;;;;;21.92;100.00;100970.59;5071399;28;20502;-40
2023/07/22 04:49:28;;;;;;;10.60;10.20;;;;;;;22.82;100.00;100978.13;5070615;28;20469;-40
2023/07/22 04:51:57;;;;;;;10.03;9.63;;;;;;;23.73;100.00;100980.72;5070227;28;20804;-41
2023/07/22 04:54:28;;;;;;;10.80;10.10;;;;;;;24.36;100.00;100968.19;5071107;28;20473;-40
2023/07/22 04:56:55;;;;;;;9.70;9.40;;;;;;;25.22;100.00;100981.97;5071165;28;20430;-40
2023/07/22 04:59:23;;;;;;;10.20;9.80;;;;;;;25.88;100.00;100981.28;5069727;28;20484;-42
2023/07/22 05:01:51;;;;;;;8.60;8.23;;;;;;;26.01;89.39;100982.50;5049645;28;20441;-42
2023/07/22 05:04:19;;;;;;;9.20;8.60;;;;;;;26.39;93.23;100993.19;5054938;28;20454;-41
2023/07/22 05:06:47;;;;;;;6.97;6.40;;;;;;;26.40;81.62;100989.34;5071080;28;21128;-42
2023/07/22 05:09:16;;;;;;;5.77;5.47;;;;;;;26.73;74.93;100989.41;5070462;28;20494;-42
2023/07/22 05:11:44;;;;;;;5.63;5.10;;;;;;;27.01;78.51;100999.38;5070711;28;20434;-40
2023/07/22 05:14:11;;;;;;;4.87;4.53;;;;;;;27.01;60.06;101002.09;5070988;28;20511;-40
2023/07/22 05:16:39;;;;;;;5.17;4.87;;;;;;;27.43;72.28;101009.31;5071006;28;20583;-44
2023/07/22 05:19:08;;;;;;;5.00;4.60;;;;;;;27.50;71.01;101003.47;5070343;28;20855;-41
2023/07/22 05:21:36;;;;;;;4.63;4.00;;;;;;;28.10;70.52;101002.28;5070771;28;21087;-42
2023/07/22 05:24:03;;;;;;;4.10;3.83;;;;;;;27.32;63.18;101000.47;5071141;28;20454;-41
2023/07/22 05:26:32;;;;;;;3.90;3.70;;;;;;;26.12;63.59;101008.56;5070914;28;20749;-43
2023/07/22 05:29:00;;;;;;;3.97;3.77;;;;;;;26.26;67.10;101018.53;5070588;28;20450;-40
2023/07/22 05:31:28;;;;;;;4.87;4.47;;;;;;;25.35;64.59;101018.72;5070788;28;20540;-42
2023/07/22 05:33:56;;;;;;;3.93;3.73;;;;;;;24.40;66.42;101021.03;5071260;28;20454;-42
2023/07/22 05:36:24;;;;;;;3.60;3.30;;;;;;;23.63;74.95;101019.69;5071108;28;20466;-43
2023/07/22 05:38:52;;;;;;;3.47;3.37;;;;;;;22.75;82.19;101020.28;5070493;28;21021;-40
2023/07/22 05:41:20;;;;;;;3.63;3.33;;;;;;;22.61;90.83;101028.91;5071068;28;20470;-40
2023/07/22 05:43:49;;;;;;;3.60;3.27;;;;;;;21.61;95.19;101018.44;5070953;28;20452;-41
2023/07/22 05:46:16;;;;;;;5.23;3.37;;;;;;;20.83;100.00;101030.84;5071051;28;20539;-42
2023/07/22 05:48:44;;;;;;;3.27;3.10;;;;;;;20.04;100.00;101026.94;5070666;28;20441;-40
2023/07/22 05:51:12;;;;;;;3.30;3.10;;;;;;;19.48;100.00;101027.25;5070469;28;20426;-43
2023/07/22 05:53:40;;;;;;;3.00;2.90;;;;;;;19.13;100.00;101025.63;5070501;28;20446;-43
2023/07/22 05:56:08;;;;;;;3.40;3.10;;;;;;;18.86;100.00;101018.41;5070747;28;20487;-40
2023/07/22 05:58:35;;;;;;;3.60;3.40;;;;;;;19.28;100.00;101016.94;5070037;28;20434;-40
2023/07/22 06:01:04;;;;;;;3.50;3.30;;;;;;;21.09;100.00;101026.47;5070811;28;20469;-41
2023/07/22 06:03:32;;;;;;;3.17;3.07;;;;;;;22.64;96.39;101015.88;5069667;28;20866;-40
2023/07/22 06:06:00;;;;;;;4.40;4.20;;;;;;;23.18;100.00;101016.22;5070721;28;20429;-41
2023/07/22 06:08:28;;;;;;;3.37;3.17;;;;;;;24.34;88.86;101015.91;5068742;28;20532;-40
2023/07/22 06:10:56;;;;;;;3.63;3.50;;;;;;;25.44;81.76;101017.00;5052570;28;20455;-42
2023/07/22 06:13:24;;;;;;;3.13;2.93;;;;;;;26.42;77.47;101018.31;5050160;28;20455;-44
2023/07/22 06:15:52;;;;;;;3.33;3.10;;;;;;;27.14;67.99;101016.94;5050283;28;20454;-42
2023/07/22 06:18:21;;;;;;;3.27;2.97;;;;;;;27.67;67.95;101020.91;5049680;28;20939;-41
2023/07/22 06:20:48;;;;;;;3.10;2.90;;;;;;;28.18;59.16;101017.16;5049625;28;21112;-43
2023/07/22 06:23:17;;;;;;;2.70;2.60;;;;;;;26.68;54.66;101025.84;5050441;28;20508;-43
2023/07/22 06:25:45;;;;;;;2.90;2.80;;;;;;;27.45;60.38;101021.59;5058475;28;20480;-42
2023/07/22 06:28:13;;;;;;;2.50;2.40;;;;;;;28.20;59.85;101025.91;5074615;28;20495;-43
2023/07/22 06:30:41;;;;;;;2.67;2.57;;;;;;;28.08;58.34;101028.34;5073933;28;20458;-42
2023/07/22 06:33:08;;;;;;;2.67;2.53;;;;;;;27.73;57.60;101027.94;5073358;28;20456;-43
2023/07/22 06:35:38;;;;;;;2.67;2.50;;;;;;;28.24;53.18;101024.16;5074451;28;20529;-43
2023/07/22 06:38:06;;;;;;;2.50;2.30;;;;;;;28.99;53.90;101029.88;5074327;28;20434;-42
2023/07/22 06:40:34;;;;;;;3.20;2.47;;;;;;;28.68;56.16;101029.78;5073699;28;20385;-42
2023/07/22 06:43:01;;;;;;;7.57;3.60;;;;;;;28.20;55.94;101034.94;5073846;28;20298;-45
2023/07/22 06:45:29;;;;;;;2.67;2.47;;;;;;;27.80;56.59;101038.50;5073937;28;20436;-41
2023/07/22 06:47:57;;;;;;;3.13;2.80;;;;;;;26.53;57.27;101036.19;5072472;28;20290;-42
2023/07/22 06:50:25;;;;;;;2.73;2.53;;;;;;;25.76;58.69;101038.25;5073714;28;20583;-41
2023/07/22 06:52:54;;;;;;;2.67;2.47;;;;;;;25.40;59.67;101043.22;5073814;28;20456;-40
2023/07/22 06:55:22;;;;;;;2.50;2.40;;;;;;;25.94;62.69;101036.69;5073206;28;20438;-43
2023/07/22 06:57:50;;;;;;;3.27;2.20;;;;;;;25.44;60.08;101044.28;5074158;28;20434;-42
2023/07/22 07:00:17;;;;;;;2.70;2.50;;;;;;;25.54;62.98;101036.00;5064783;28;20535;-43
2023/07/22 07:02:47;;;;;;;2.30;2.20;;;;;;;26.06;58.07;101035.16;5053006;28;20451;-40
2023/07/22 07:05:16;;;;;;;2.33;2.23;;;;;;;26.01;58.88;101034.41;5072257;28;20429;-41
2023/07/22 07:07:44;;;;;;;2.40;2.20;;;;;;;26.61;60.00;101030.88;5071900;28;20437;-41
2023/07/22 07:10:14;;;;;;;2.40;2.20;;;;;;;26.59;60.08;101035.03;5070243;28;20511;-41
2023/07/22 07:12:41;;;;;;;2.80;2.30;;;;;;;26.94;58.74;101029.84;5071068;28;20489;-43
2023/07/22 07:15:10;;;;;;;3.73;2.13;;;;;;;27.50;54.94;101028.09;5071396;28;20444;-42
2023/07/22 07:17:38;;;;;;;4.40;2.20;;;;;;;27.68;51.82;101029.97;5070296;28;20471;-42
2023/07/22 07:20:07;;;;;;;3.23;2.80;;;;;;;28.26;55.64;101028.22;5069930;28;20472;-45
2023/07/22 07:22:34;;;;;;;4.70;2.13;;;;;;;27.98;52.61;101027.44;5071574;28;20480;-44
2023/07/22 07:25:02;;;;;;;2.13;2.00;;;;;;;28.53;54.29;101038.31;5070930;28;20468;-43
2023/07/22 07:27:31;;;;;;;2.93;2.20;;;;;;;28.60;51.95;101033.22;5070272;28;20241;-42
2023/07/22 07:29:59;;;;;;;3.00;2.03;;;;;;;28.76;51.35;101037.28;5071270;28;20221;-43
2023/07/22 07:32:26;;;;;;;2.57;1.80;;;;;;;28.35;51.09;101042.84;5071707;28;20231;-41
2023/07/22 07:34:54;;;;;;;4.23;2.37;;;;;;;28.57;49.12;101042.09;5066298;28;20544;-41
2023/07/22 07:37:23;;;;;;;2.57;2.00;;;;;;;28.21;48.25;101039.31;5071874;28;20194;-41
2023/07/22 07:39:51;;;;;;;3.97;2.20;;;;;;;27.93;49.08;101030.25;5071418;28;20218;-41
2023/07/22 07:42:18;;;;;;;4.03;2.10;;;;;;;28.14;50.47;101033.41;5072460;28;20215;-42
2023/07/22 07:44:47;;;;;;;2.90;2.00;;;;;;;28.40;51.56;101041.94;5071927;28;20650;-42
2023/07/22 07:47:15;;;;;;;3.30;2.00;;;;;;;28.33;49.10;101044.28;5072064;28;20194;-43
2023/07/22 07:49:43;;;;;;;3.20;2.10;;;;;;;28.35;49.14;101048.31;5071156;28;20221;-44
2023/07/22 07:52:10;;;;;;;2.57;2.10;;;;;;;28.53;51.24;101047.38;5068421;28;20195;-42
2023/07/22 07:54:38;;;;;;;2.20;2.10;;;;;;;28.35;49.63;101050.25;5072143;28;20216;-43
2023/07/22 07:57:06;;;;;;;3.73;2.23;;;;;;;28.32;47.96;101059.09;5071636;28;20286;-45
2023/07/22 07:59:34;;;;;;;2.13;1.93;;;;;;;28.01;46.59;101054.25;5071644;28;20312;-42
2023/07/22 08:02:09;;;;;;;3.67;2.00;;;;;;;27.84;48.44;101051.28;5071829;28;20505;-41
2023/07/22 08:04:37;;;;;;;6.60;2.97;;;;;;;26.60;49.87;101055.81;5069327;28;20215;-42
2023/07/22 08:07:07;;;;;;;2.63;2.37;;;;;;;26.11;50.96;101056.13;5071441;28;20631;-41
2023/07/22 08:09:35;;;;;;;3.40;3.10;;;;;;;26.06;50.75;101054.28;5071209;28;20540;-41
2023/07/22 08:12:03;;;;;;;3.83;2.80;;;;;;;25.62;48.52;101049.06;5071708;28;20429;-41
2023/07/22 08:14:30;;;;;;;3.90;3.13;;;;;;;25.57;50.58;101059.19;5071918;28;20820;-40
2023/07/22 08:16:58;;;;;;;5.30;2.80;;;;;;;25.42;51.64;101051.94;5064834;28;20434;-41
2023/07/22 08:19:27;;;;;;;3.47;3.17;;;;;;;25.45;51.98;101056.81;5071147;28;20454;-41
2023/07/22 08:21:55;;;;;;;4.23;3.00;;;;;;;24.90;53.80;101049.94;5071350;28;20470;-41
2023/07/22 08:24:22;;;;;;;4.10;2.60;;;;;;;25.23;55.63;101043.66;5070385;28;20449;-41
2023/07/22 08:26:50;;;;;;;3.40;3.20;;;;;;;24.89;56.87;101051.03;5070174;28;20426;-42
2023/07/22 08:29:18;;;;;;;2.93;2.67;;;;;;;25.03;56.83;101056.66;5069429;28;20507;-42
2023/07/22 08:31:47;;;;;;;3.17;2.63;;;;;;;25.31;55.90;101062.16;5070353;28;20428;-44
2023/07/22 08:34:15;;;;;;;4.33;3.27;;;;;;;25.13;55.45;101067.50;5070140;28;20523;-40
2023/07/22 08:36:44;;;;;;;3.17;2.90;;;;;;;25.16;55.34;101061.47;5069606;28;20434;-42
2023/07/22 08:39:12;;;;;;;2.60;2.40;;;;;;;25.20;54.74;101063.34;5069085;28;20990;-41
2023/07/22 08:41:43;;;;;;;5.13;2.90;;;;;;;25.45;54.76;101064.22;5070772;28;20497;-41
2023/07/22 08:44:13;;;;;;;3.10;2.90;;;;;;;25.57;55.59;101068.22;5071142;28;20516;-41
2023/07/22 08:46:43;;;;;;;3.60;3.30;;;;;;;25.49;55.47;101055.19;5071260;28;20924;-40
2023/07/22 08:49:11;;;;;;;3.93;3.13;;;;;;;25.27;55.44;101049.34;5069322;28;20546;-40
2023/07/22 08:51:40;;;;;;;3.23;3.00;;;;;;;25.31;54.62;101053.97;5069699;28;20484;-41
2023/07/22 08:54:09;;;;;;;2.90;2.50;;;;;;;24.65;56.38;101061.78;5069836;28;20454;-42
2023/07/22 08:56:39;;;;;;;2.83;2.63;;;;;;;24.54;57.07;101059.41;5069727;28;20842;-39
2023/07/22 08:59:07;;;;;;;3.70;3.30;;;;;;;24.10;56.35;101053.88;5069165;28;20465;-41
2023/07/22 09:01:35;;;;;;;4.60;2.87;;;;;;;24.11;59.11;101059.06;5075542;28;20529;-43
2023/07/22 09:04:04;;;;;;;3.17;2.97;;;;;;;24.05;60.04;101062.88;5080488;28;20824;-43
2023/07/22 09:06:33;;;;;;;3.30;2.73;;;;;;;24.26;59.58;101068.25;5083340;28;20426;-41
2023/07/22 09:09:04;;;;;;;3.33;3.13;;;;;;;24.05;58.63;101057.41;5081699;28;20461;-41
2023/07/22 09:11:34;;;;;;;3.03;2.73;;;;;;;23.61;61.37;101067.34;5082766;28;20438;-42
2023/07/22 09:14:03;;;;;;;2.70;2.60;;;;;;;23.87;61.04;101073.53;5081891;28;21062;-40
2023/07/22 09:16:32;;;;;;;2.93;2.73;;;;;;;24.20;60.48;101073.75;5082492;28;20434;-41
2023/07/22 09:19:00;;;;;;;3.10;2.80;;;;;;;24.40;61.41;101074.75;5082126;28;20465;-46
2023/07/22 09:21:28;;;;;;;3.40;2.97;;;;;;;24.46;60.38;101077.16;5082699;28;20467;-41
2023/07/22 09:23:56;;;;;;;5.63;2.70;;;;;;;24.44;59.00;101082.09;5055408;28;20801;-41
2023/07/22 09:26:24;;;;;;;3.07;2.87;;;;;;;24.57;57.88;101072.47;5082401;28;20429;-40
2023/07/22 09:28:55;;;;;;;3.43;3.13;;;;;;;24.24;56.56;101071.28;5083382;28;20422;-42
2023/07/22 09:31:24;;;;;;;3.20;3.03;;;;;;;23.98;56.97;101061.53;5082957;28;20441;-43
2023/07/22 09:33:54;;;;;;;3.43;3.13;;;;;;;23.87;59.01;101066.19;5081497;28;20477;-41
2023/07/22 09:36:22;;;;;;;3.23;2.93;;;;;;;23.97;58.66;101060.72;5081293;28;20472;-41
2023/07/22 09:39:01;;;;;;;3.83;3.47;;;;;;;24.39;58.60;101068.50;5081164;28;20437;-40
2023/07/22 09:41:29;;;;;;;3.83;3.30;;;;;;;24.75;56.92;101067.19;5083126;28;20426;-41
2023/07/22 09:43:58;;;;;;;4.73;2.87;;;;;;;25.03;57.37;101056.66;5082556;28;20824;-41
2023/07/22 09:46:32;;;;;;;4.20;3.07;;;;;;;24.77;58.06;101067.72;5082720;28;20452;-40
2023/07/22 09:49:05;;;;;;;5.10;3.87;;;;;;;24.29;57.16;101052.16;5081916;28;20463;-41
2023/07/22 09:51:34;;;;;;;5.20;3.13;;;;;;;23.60;59.56;101058.34;5081878;28;20802;-43
2023/07/22 09:54:09;;;;;;;3.47;3.20;;;;;;;23.27;61.95;101058.09;5082494;28;20852;-41
2023/07/22 09:56:45;;;;;;;4.23;3.00;;;;;;;22.86;60.75;101058.06;5082103;28;20686;-40
2023/07/22 09:59:15;;;;;;;3.67;3.37;;;;;;;22.63;61.91;101055.00;5077713;28;20555;-40
2023/07/22 10:01:46;;;;;;;5.53;2.73;;;;;;;23.12;59.91;101065.16;5084129;28;20430;-41
2023/07/22 10:04:17;;;;;;;2.70;2.50;;;;;;;22.98;59.39;101066.78;5083423;28;20465;-43
2023/07/22 10:06:45;;;;;;;3.17;2.87;;;;;;;22.64;59.07;101043.84;5085779;28;20437;-40
2023/07/22 10:09:14;;;;;;;3.63;3.43;;;;;;;22.88;60.94;101053.16;5085048;28;20433;-42
2023/07/22 10:11:42;;;;;;;3.53;3.23;;;;;;;23.37;60.76;101056.19;5086071;28;20433;-41
2023/07/22 10:14:12;;;;;;;3.03;2.80;;;;;;;23.17;55.87;101063.53;5085965;28;20465;-40
2023/07/22 10:16:42;;;;;;;3.33;3.13;;;;;;;23.42;54.99;101060.81;5085278;28;20828;-40
2023/07/22 10:19:11;;;;;;;3.20;3.00;;;;;;;23.59;55.19;101055.91;5084653;28;20446;-43
2023/07/22 10:21:40;;;;;;;4.00;2.80;;;;;;;23.79;54.61;101052.31;5080863;28;20509;-40
2023/07/22 10:24:10;;;;;;;3.27;3.07;;;;;;;24.16;55.56;101060.97;5085682;28;20462;-40
2023/07/22 10:26:40;;;;;;;3.07;2.70;;;;;;;24.72;55.62;101048.66;5086430;28;20788;-40
2023/07/22 10:29:15;;;;;;;2.57;2.40;;;;;;;24.99;53.75;101059.16;5082307;28;20438;-44
2023/07/22 10:31:44;;;;;;;2.60;2.37;;;;;;;25.37;52.50;101054.72;5086116;28;20429;-41
2023/07/22 10:34:12;;;;;;;5.33;3.33;;;;;;;25.31;51.69;101062.16;5084688;28;20503;-42
2023/07/22 10:36:40;;;;;;;3.30;3.20;;;;;;;24.73;51.53;101071.28;5079561;28;21008;-40
2023/07/22 10:39:07;;;;;;;3.30;3.00;;;;;;;24.42;51.79;101069.84;5086219;28;20505;-41
2023/07/22 10:41:39;;;;;;;3.33;3.13;;;;;;;24.44;53.63;101067.63;5085580;28;20429;-41
2023/07/22 10:44:07;;;;;;;4.07;3.77;;;;;;;24.12;53.92;101070.78;5084723;28;20553;-43
2023/07/22 10:46:36;;;;;;;4.10;3.80;;;;;;;23.81;58.46;101074.66;5085730;28;20426;-40
2023/07/22 10:49:13;;;;;;;3.53;3.23;;;;;;;23.57;56.50;101069.78;5084968;28;20804;-40
2023/07/22 10:51:41;;;;;;;3.47;3.27;;;;;;;24.00;55.97;101071.06;5080646;28;20788;-41
2023/07/22 10:54:13;;;;;;;3.40;3.20;;;;;;;24.77;53.56;101067.72;5085687;28;20526;-40
2023/07/22 10:56:44;;;;;;;3.50;3.20;;;;;;;25.46;54.28;101060.38;5084568;28;20422;-40
2023/07/22 10:59:12;;;;;;;4.43;3.17;;;;;;;25.41;50.08;101053.06;5081266;28;20429;-41
2023/07/22 11:01:41;;;;;;;3.70;3.50;;;;;;;25.95;52.83;101049.25;5085799;28;20426;-41
2023/07/22 11:04:30;;;;;;;3.43;3.17;;;;;;;25.67;48.07;101037.25;5083732;28;20462;-41
2023/07/22 11:07:09;;;;;;;3.80;3.60;;;;;;;25.89;50.04;101051.22;5083766;28;20426;-45
2023/07/22 11:09:43;;;;;;;3.20;3.10;;;;;;;25.78;49.48;101060.63;5083040;28;20440;-44
2023/07/22 11:12:17;;;;;;;3.37;3.07;;;;;;;25.91;50.15;101059.13;5084126;28;20464;-40
2023/07/22 11:14:49;;;;;;;3.77;3.10;;;;;;;25.89;50.20;101058.59;5085145;28;20453;-41
2023/07/22 11:17:18;;;;;;;3.27;3.07;;;;;;;25.84;48.99;101065.75;5085227;28;20526;-41
2023/07/22 11:19:49;;;;;;;2.37;2.27;;;;;;;25.72;49.21;101061.78;5085775;28;20533;-43